createdAt,value
2019-02-25T00:02:27.629Z,103573.56
2019-02-25T00:04:58.245Z,103572.71
2019-02-25T00:07:28.957Z,103576.28
2019-02-25T00:10:04.095Z,103571.16
2019-02-25T00:12:34.467Z,103573.52
2019-02-25T00:15:05.579Z,103575.89
2019-02-25T00:17:37.131Z,103565.58
2019-02-25T00:20:10.272Z,103564.73
2019-02-25T00:22:41.747Z,103562.02
2019-02-25T00:25:12.736Z,103565.23
2019-02-25T00:27:47.465Z,103564.73
2019-02-25T00:30:19.585Z,103563.69
2019-02-25T00:32:56.315Z,103571.82
2019-02-25T00:35:28.260Z,103569.45
2019-02-25T00:37:59.911Z,103563.19
2019-02-25T00:40:32.638Z,103561.32
2019-02-25T00:43:01.751Z,103560.28
2019-02-25T00:45:31.901Z,103562.67
2019-02-25T00:48:08.136Z,103560.78
2019-02-25T00:50:43.879Z,103559.97
2019-02-25T00:53:21.704Z,103556.72
2019-02-25T00:55:50.893Z,103562.98
2019-02-25T00:58:22.659Z,103558.41
2019-02-25T01:00:53.278Z,103555.20
2019-02-25T01:03:25.373Z,103557.25
2019-02-25T01:06:03.457Z,103555.70
2019-02-25T01:08:42.234Z,103551.13
2019-02-25T01:11:17.090Z,103558.72
2019-02-25T01:13:47.322Z,103549.43
2019-02-25T01:16:19.561Z,103554.35
2019-02-25T01:18:53.105Z,103554.86
2019-02-25T01:21:22.604Z,103544.71
2019-02-25T01:23:52.951Z,103548.97
2019-02-25T01:26:29.283Z,103540.38
2019-02-25T01:29:00.153Z,103552.97
2019-02-25T01:31:34.238Z,103550.30
2019-02-25T01:34:06.726Z,103548.48
2019-02-25T01:36:43.713Z,103549.69
2019-02-25T01:39:15.701Z,103552.79
2019-02-25T01:42:07.329Z,103554.19
2019-02-25T01:44:40.926Z,103552.37
2019-02-25T01:47:12.487Z,103552.56
2019-02-25T01:52:29.854Z,103556.35
2019-02-25T01:55:00.786Z,103558.21
2019-02-25T01:57:31.484Z,103551.25
2019-02-25T02:00:01.892Z,103556.31
2019-02-25T02:02:38.180Z,103556.62
2019-02-25T02:05:12.155Z,103549.34
2019-02-25T02:07:44.147Z,103547.80
2019-02-25T02:10:14.463Z,103551.86
2019-02-25T02:12:51.634Z,103552.56
2019-02-25T02:15:21.057Z,103550.36
2019-02-25T02:17:54.939Z,103552.56
2019-02-25T02:20:30.114Z,103541.92
2019-02-25T02:23:03.496Z,103538.05
2019-02-25T02:25:41.424Z,103533.64
2019-02-25T02:28:14.861Z,103530.27
2019-02-25T02:30:46.147Z,103525.55
2019-02-25T02:33:19.582Z,103519.16
2019-02-25T02:35:54.336Z,103519.86
2019-02-25T02:38:27.669Z,103513.78
2019-02-25T02:41:01.135Z,103512.97
2019-02-25T02:43:31.233Z,103506.39
2019-02-25T02:46:11.021Z,103505.20
2019-02-25T02:48:44.830Z,103496.61
2019-02-25T02:51:14.590Z,103496.69
2019-02-25T02:53:45.907Z,103486.39
2019-02-25T02:56:16.666Z,103484.00
2019-02-25T02:58:46.425Z,103480.13
2019-02-25T03:01:18.059Z,103472.39
2019-02-25T03:03:49.740Z,103462.91
2019-02-25T03:06:21.194Z,103457.50
2019-02-25T03:08:55.337Z,103462.06
2019-02-25T03:14:13.790Z,103449.56
2019-02-25T03:16:47.994Z,103451.23
2019-02-25T03:21:55.058Z,103436.53
2019-02-25T03:24:26.478Z,103433.52
2019-02-25T03:26:59.954Z,103431.16
2019-02-25T03:29:33.394Z,103431.23
2019-02-25T03:32:04.045Z,103432.94
2019-02-25T03:34:34.958Z,103429.27
2019-02-25T03:37:05.911Z,103433.37
2019-02-25T03:42:16.811Z,103442.88
2019-02-25T03:44:46.581Z,103439.86
2019-02-25T03:47:16.244Z,103444.42
2019-02-25T03:49:50.633Z,103441.59
2019-02-25T03:54:59.799Z,103446.58
2019-02-25T03:57:32.232Z,103447.97
2019-02-25T04:00:05.039Z,103449.17
2019-02-25T04:02:36.415Z,103447.88
2019-02-25T04:05:11.385Z,103439.30
2019-02-25T04:07:41.513Z,103447.26
2019-02-25T04:10:15.049Z,103449.69
2019-02-25T04:12:48.515Z,103449.91
2019-02-25T04:15:22.558Z,103450.78
2019-02-25T04:18:02.334Z,103444.21
2019-02-25T04:20:32.786Z,103440.50
2019-02-25T04:23:04.099Z,103448.48
2019-02-25T04:25:37.916Z,103445.44
2019-02-25T04:28:10.601Z,103438.02
2019-02-25T04:30:41.500Z,103442.13
2019-02-25T04:33:16.326Z,103442.13
2019-02-25T04:35:56.047Z,103441.44
2019-02-25T04:38:27.604Z,103430.28
2019-02-25T04:40:58.565Z,103430.47
2019-02-25T04:43:29.427Z,103430.66
2019-02-25T04:46:02.487Z,103431.38
2019-02-25T04:48:33.279Z,103428.55
2019-02-25T04:51:06.548Z,103425.69
2019-02-25T04:53:37.291Z,103427.22
2019-02-25T04:56:14.692Z,103427.41
2019-02-25T04:58:47.373Z,103425.39
2019-02-25T05:01:18.387Z,103434.19
2019-02-25T05:03:48.085Z,103433.22
2019-02-25T05:06:21.461Z,103432.39
2019-02-25T05:08:51.486Z,103433.29
2019-02-25T05:11:32.779Z,103435.54
2019-02-25T05:14:03.118Z,103434.27
2019-02-25T05:16:33.361Z,103434.47
2019-02-25T05:19:07.624Z,103440.92
2019-02-25T05:21:37.083Z,103437.58
2019-02-25T05:24:10.316Z,103435.42
2019-02-25T05:26:39.886Z,103432.24
2019-02-25T05:29:17.115Z,103438.33
2019-02-25T05:31:49.323Z,103443.75
2019-02-25T05:34:18.975Z,103442.39
2019-02-25T05:39:28.068Z,103431.42
2019-02-25T05:42:07.323Z,103431.91
2019-02-25T05:44:40.504Z,103432.73
2019-02-25T05:47:14.463Z,103427.92
2019-02-25T05:49:45.547Z,103422.95
2019-02-25T05:52:22.887Z,103427.28
2019-02-25T05:54:59.177Z,103432.89
2019-02-25T05:57:34.123Z,103438.75
2019-02-25T06:00:05.454Z,103433.31
2019-02-25T06:02:36.732Z,103435.65
2019-02-25T06:05:12.122Z,103438.32
2019-02-25T06:07:45.647Z,103440.47
2019-02-25T06:10:16.097Z,103443.48
2019-02-25T06:12:47.476Z,103443.42
2019-02-25T06:15:22.568Z,103443.73
2019-02-25T06:17:56.838Z,103441.82
2019-02-25T06:23:10.911Z,103444.12
2019-02-25T06:25:41.211Z,103442.26
2019-02-25T06:28:20.252Z,103447.98
2019-02-25T06:30:49.741Z,103446.63
2019-02-25T06:33:18.960Z,103446.13
2019-02-25T06:35:54.092Z,103444.27
2019-02-25T06:40:59.198Z,103440.59
2019-02-25T06:43:30.084Z,103438.89
2019-02-25T06:46:00.266Z,103430.13
2019-02-25T06:48:31.125Z,103426.56
2019-02-25T06:51:03.059Z,103426.72
2019-02-25T06:53:35.474Z,103441.19
2019-02-25T06:56:08.203Z,103434.39
2019-02-25T06:58:46.517Z,103425.20
2019-02-25T07:01:23.305Z,103427.87
2019-02-25T07:04:13.853Z,103434.25
2019-02-25T07:07:04.392Z,103432.20
2019-02-25T07:09:38.971Z,103430.34
2019-02-25T07:12:16.524Z,103433.55
2019-02-25T07:14:57.019Z,103438.27
2019-02-25T07:17:31.681Z,103440.67
2019-02-25T07:20:42.695Z,103437.42
2019-02-25T07:23:19.494Z,103430.84
2019-02-25T07:26:06.382Z,103433.24
2019-02-25T07:29:10.510Z,103434.59
2019-02-25T07:31:51.390Z,103438.00
2019-02-25T07:34:31.114Z,103436.83
2019-02-25T07:37:06.517Z,103440.05
2019-02-25T07:39:57.340Z,103449.48
2019-02-25T07:42:37.337Z,103452.84
2019-02-25T07:46:18.271Z,103456.98
2019-02-25T07:49:04.589Z,103459.74
2019-02-25T07:51:41.796Z,103462.38
2019-02-25T07:57:04.966Z,103467.36
2019-02-25T08:02:41.764Z,103476.03
2019-02-25T08:05:31.540Z,103481.50
2019-02-25T08:08:20.003Z,103480.63
2019-02-25T08:10:58.676Z,103483.09
2019-02-25T08:13:39.792Z,103483.20
2019-02-25T08:16:24.681Z,103486.56
2019-02-25T08:18:59.556Z,103493.99
2019-02-25T08:21:38.711Z,103496.20
2019-02-25T08:27:17.094Z,103500.58
2019-02-25T08:30:00.487Z,103514.79
2019-02-25T08:32:35.974Z,103509.50
2019-02-25T08:35:11.972Z,103516.20
2019-02-25T08:38:28.402Z,103524.98
2019-02-25T08:41:09.926Z,103523.77
2019-02-25T08:44:57.587Z,103527.45
2019-02-25T08:47:36.309Z,103524.87
2019-02-25T08:50:10.115Z,103534.67
2019-02-25T08:52:46.049Z,103530.75
2019-02-25T08:55:23.594Z,103532.55
2019-02-25T09:00:41.115Z,103539.84
2019-02-25T09:06:30.085Z,103544.34
2019-02-25T09:12:14.499Z,103554.20
2019-02-25T09:14:43.567Z,103557.09
2019-02-25T09:17:12.934Z,103556.62
2019-02-25T09:19:43.507Z,103547.18
2019-02-25T09:22:18.665Z,103547.21
2019-02-25T09:24:48.328Z,103545.27
2019-02-25T09:27:19.245Z,103535.66
2019-02-25T09:29:48.792Z,103543.87
2019-02-25T09:32:24.183Z,103540.23
2019-02-25T09:34:53.628Z,103534.81
2019-02-25T09:37:22.971Z,103536.31
2019-02-25T09:39:53.003Z,103537.59
2019-02-25T09:42:24.630Z,103541.26
2019-02-25T09:44:54.757Z,103539.28
2019-02-25T09:47:25.838Z,103534.09
2019-02-25T09:49:55.428Z,103536.53
2019-02-25T09:52:24.418Z,103534.45
2019-02-25T09:54:56.145Z,103535.73
2019-02-25T09:57:25.322Z,103525.08
2019-02-25T09:59:55.537Z,103521.25
2019-02-25T10:02:31.713Z,103527.00
2019-02-25T10:05:03.723Z,103526.92
2019-02-25T10:07:33.196Z,103523.05
2019-02-25T10:10:04.362Z,103529.05
2019-02-25T10:12:48.212Z,103516.50
2019-02-25T10:15:18.538Z,103516.20
2019-02-25T10:17:48.757Z,103528.66
2019-02-25T10:20:18.559Z,103523.43
2019-02-25T10:22:48.164Z,103529.51
2019-02-25T10:25:20.006Z,103528.57
2019-02-25T10:27:51.631Z,103531.08
2019-02-25T10:30:26.390Z,103536.44
2019-02-25T10:32:56.473Z,103540.72
2019-02-25T10:35:28.247Z,103536.88
2019-02-25T10:38:03.229Z,103553.42
2019-02-25T10:40:35.755Z,103552.57
2019-02-25T10:43:10.487Z,103556.78
2019-02-25T10:45:43.377Z,103554.77
2019-02-25T10:48:15.195Z,103549.98
2019-02-25T10:53:53.947Z,103544.19
2019-02-25T10:56:32.764Z,103541.70
2019-02-25T10:59:05.701Z,103536.66
2019-02-25T11:01:39.138Z,103529.20
2019-02-25T11:04:06.652Z,103534.98
2019-02-25T11:06:37.968Z,103538.63
2019-02-25T11:09:18.109Z,103539.89
2019-02-25T11:11:50.517Z,103539.56
2019-02-25T11:14:23.106Z,103539.28
2019-02-25T11:16:56.207Z,103546.28
2019-02-25T11:19:28.555Z,103542.69
2019-02-25T11:22:08.324Z,103537.12
2019-02-25T11:24:36.485Z,103546.56
2019-02-25T11:27:09.867Z,103537.53
2019-02-25T11:29:42.518Z,103531.20
2019-02-25T11:32:11.331Z,103527.61
2019-02-25T11:34:43.005Z,103519.31
2019-02-25T11:37:14.481Z,103512.80
2019-02-25T11:39:52.481Z,103515.85
2019-02-25T11:42:20.682Z,103507.50
2019-02-25T11:45:04.365Z,103497.17
2019-02-25T11:47:37.509Z,103496.20
2019-02-25T11:50:14.229Z,103494.17
2019-02-25T11:52:46.516Z,103490.34
2019-02-25T11:55:17.929Z,103491.88
2019-02-25T11:57:47.260Z,103490.92
2019-02-25T12:00:19.029Z,103478.96
2019-02-25T12:02:48.796Z,103477.08
2019-02-25T12:05:20.197Z,103468.33
2019-02-25T12:07:52.126Z,103468.83
2019-02-25T12:10:22.211Z,103459.44
2019-02-25T12:13:00.889Z,103468.12
2019-02-25T12:15:30.694Z,103462.36
2019-02-25T12:18:04.359Z,103449.94
2019-02-25T12:20:34.174Z,103454.75
2019-02-25T12:23:06.553Z,103447.95
2019-02-25T12:25:46.856Z,103450.13
2019-02-25T12:28:17.128Z,103446.04
2019-02-25T12:30:48.321Z,103441.62
2019-02-25T12:33:21.715Z,103435.94
2019-02-25T12:35:50.890Z,103428.08
2019-02-25T12:38:24.125Z,103425.39
2019-02-25T12:40:54.511Z,103419.31
2019-02-25T12:46:17.619Z,103414.16
2019-02-25T12:48:50.097Z,103423.49
2019-02-25T12:54:51.090Z,103406.09
2019-02-25T13:03:43.233Z,103394.50
2019-02-25T13:06:39.680Z,103387.61
2019-02-25T13:12:17.980Z,103381.74
2019-02-25T13:14:56.824Z,103378.04
2019-02-25T13:20:17.740Z,103386.82
2019-02-25T13:25:53.009Z,103372.07
2019-02-25T13:28:39.046Z,103370.22
2019-02-25T13:31:22.597Z,103376.78
2019-02-25T13:34:07.730Z,103375.83
2019-02-25T13:37:00.992Z,103370.80
2019-02-25T13:39:52.692Z,103368.06
2019-02-25T13:42:44.547Z,103376.51
2019-02-25T13:45:16.127Z,103375.06
2019-02-25T13:50:50.382Z,103376.14
2019-02-25T13:53:25.956Z,103373.16
2019-02-25T13:56:17.741Z,103378.48
2019-02-25T14:01:48.875Z,103375.37
2019-02-25T14:04:37.500Z,103367.22
2019-02-25T14:10:22.413Z,103361.45
2019-02-25T14:13:05.421Z,103369.91
2019-02-25T14:15:47.014Z,103363.88
2019-02-25T14:18:28.567Z,103358.12
2019-02-25T14:33:36.887Z,103351.59
2019-02-25T14:52:09.076Z,103335.28
2019-02-25T14:55:07.130Z,103344.58
